Rector, Pennsylvania
Current Conditions -  °F | °C
As of 9:50 AM on Wednesday 26 Nov 2014 (Local Time) from KLBE Reporting Station
Haze Haze  
Wind Chill: 32°   Ceiling: 3500
Heat Index: 32°   Visibility: 6mi
Dew Point: 32°   Wind: 0mph
Humidity: 100%   Direction: NA
Pressure: 30.08"   Gusts: NA
Location:  40.2°N, 79.24°W
Report Text: KLBE 261450Z 00000KT 6SM BR SCT025 BKN035 OVC050 00/00 A3008
Loading
Personal Weather Stations






























Interactive Weather Map New forecast layout! Learn more

10-Day Weather Forecast

Advertisements
Track Severe Weather on mobile